Flight Track Log - Related Links

Times and Time Zones

All times are in EDT time to prevent confusion due to time zone crossing. See the UCA4838 flight status page for this flight to view local times or setup timezone preferences in your user account.

Time Position Orientation Groundspeed Altitude Reporting Facility
EDT Latitude Longitude Course Direction KTS MPH feet Rate Location/Type
Sun 10:00:27 AM 42.7361 -73.8111 170° South 108 124 1,100  Level Boston Center
Sun 10:00:52 AM 42.7236 -73.8081 170° South 110 127 1,700 1,271 Climbing Boston Center
Sun 10:01:52 AM 42.6900 -73.8297 205° Southwest 147 169 2,900 1,289 Climbing Boston Center
Sun 10:02:53 AM 42.6542 -73.8600 212° Southwest 150 173 4,300 1,230 Climbing Boston Center
Sun 10:03:54 AM 42.6161 -73.8903 210° Southwest 154 177 5,400 1,140 Climbing Boston Center
Sun 10:04:54 AM 42.5742 -73.9203 208° Southwest 174 200 6,600 1,140 Climbing Boston Center
Sun 10:05:55 AM 42.5300 -73.9503 207° Southwest 178 205 7,700 1,140 Climbing Boston Center
Sun 10:06:55 AM 42.4856 -73.9914 214° Southwest 187 215 8,900 935 Climbing Boston Center
Sun 10:08:29 AM 42.4119 -74.0431 207° Southwest 203 234 10,100 398 Climbing Boston Center
Sun 10:09:41 AM 42.3531 -74.0919 212° Southwest 219 252 10,000 -45 Descending Boston Center
Sun 10:10:41 AM 42.2919 -74.1381 209° Southwest 239 275 10,000  Level Boston Center
Sun 10:11:41 AM 42.2286 -74.1869 210° Southwest 245 282 10,000  Level Boston Center
Sun 10:12:41 AM 42.1736 -74.2275 209° Southwest 250 288 10,000  Level Boston Center
Sun 10:13:41 AM 42.1106 -74.2731 208° Southwest 244 281 10,000 -250 Level Boston Center
Sun 10:14:41 AM 42.0578 -74.3136 210° Southwest 244 281 9,500 -450 Descending Boston Center
Sun 10:15:41 AM 41.9903 -74.3619 208° Southwest 250 288 9,100 -450 Descending Boston Center
Sun 10:16:41 AM 41.9247 -74.4072 207° Southwest 250 288 8,600 -500 Descending Boston Center
Sun 10:17:41 AM 41.8614 -74.4528 208° Southwest 255 293 8,100 -500 Descending Boston Center
Sun 10:18:41 AM 41.7981 -74.4981 208° Southwest 261 300 7,600 -500 Descending Boston Center
Sun 10:19:41 AM 41.7369 -74.5322 203° Southwest 256 295 7,100 -250 Descending Boston Center
Sun 10:20:41 AM 41.6681 -74.5411 186° South 245 282 7,100  Level Boston Center
Sun 10:21:41 AM 41.6011 -74.5556 189° South 245 282 7,100 -50 Level Boston Center
Sun 10:22:41 AM 41.5364 -74.5672 188° South 240 276 7,000 -300 Descending Boston Center
Sun 10:23:41 AM 41.4694 -74.5817 189° South 240 276 6,500 -355 Descending Boston Center
Sun 10:25:13 AM 41.3667 -74.6000 188° South 249 287 6,100 -158 Descending New York TRACON
Sun 10:26:13 AM 41.3000 -74.6333 201° Southwest 238 274 6,100  Level New York TRACON
Sun 10:27:13 AM 41.2333 -74.6333 180° South 238 274 6,100 -150 Level New York TRACON
Sun 10:28:13 AM 41.2000 -74.5667 124° Southeast 251 289 5,800 -500 Descending New York TRACON
Sun 10:29:01 AM 41.1667 -74.5000 124° Southeast 263 303 5,200 -444 Descending New York TRACON
Sun 10:30:01 AM 41.1167 -74.4333 135° Southeast 248 285 5,000 -100 Descending New York TRACON
Sun 10:31:01 AM 41.0667 -74.3667 135° Southeast 241 277 5,000 50 Level New York TRACON
Sun 10:32:01 AM 41.0167 -74.3000 135° Southeast 235 270 5,100 -250 Climbing New York TRACON
Sun 10:33:01 AM 40.9667 -74.2333 135° Southeast 237 273 4,500 -579 Descending New York TRACON
Sun 10:33:55 AM 40.9333 -74.1833 131° Southeast 241 277 4,000 -333 Descending New York TRACON
Sun 10:34:49 AM 40.9000 -74.1333 131° Southeast 229 264 3,900 -579 Descending New York TRACON
Sun 10:35:49 AM 40.8333 -74.0833 150° Southeast 236 272 2,900 -1,050 Descending New York TRACON
Sun 10:36:49 AM 40.7833 -74.1167 207° Southwest 213 245 1,800 -1,000 Descending New York TRACON
Sun 10:37:49 AM 40.7333 -74.1333 194° South 161 185 900 -789 Descending New York TRACON
Sun 10:38:43 AM 40.7167 -74.1500 217° Southwest 130 150 300 -667 Descending New York TRACON

Login

Don't have an account? Register now (free) for customized features, flight alerts, and more!